createdAt,value
2018-05-15T00:00:45.621Z,0.00
2018-05-15T00:01:51.997Z,0.00
2018-05-15T00:02:58.390Z,0.00
2018-05-15T00:04:04.775Z,0.00
2018-05-15T00:05:10.657Z,0.00
2018-05-15T00:06:17.026Z,0.00
2018-05-15T00:07:23.407Z,0.00
2018-05-15T00:08:30.411Z,0.00
2018-05-15T00:09:36.660Z,0.00
2018-05-15T00:10:43.041Z,0.00
2018-05-15T00:11:49.434Z,0.00
2018-05-15T00:12:55.332Z,0.00
2018-05-15T00:14:02.188Z,0.00
2018-05-15T00:15:08.558Z,0.00
2018-05-15T00:16:14.932Z,0.00
2018-05-15T00:17:21.311Z,0.00
2018-05-15T00:18:27.707Z,0.00
2018-05-15T00:19:34.066Z,0.00
2018-05-15T00:20:40.461Z,0.00
2018-05-15T00:21:46.821Z,0.00
2018-05-15T00:22:53.225Z,0.00
2018-05-15T00:23:59.559Z,0.00
2018-05-15T00:25:05.950Z,0.00
2018-05-15T00:26:12.387Z,0.00
2018-05-15T00:27:18.705Z,0.00
2018-05-15T00:28:25.083Z,0.00
2018-05-15T00:29:31.440Z,0.00
2018-05-15T00:30:37.321Z,0.00
2018-05-15T00:31:43.687Z,0.00
2018-05-15T00:32:50.592Z,0.00
2018-05-15T00:33:56.934Z,0.00
2018-05-15T00:35:03.318Z,0.00
2018-05-15T00:36:09.695Z,0.00
2018-05-15T00:37:16.069Z,0.00
2018-05-15T00:38:21.960Z,0.00
2018-05-15T00:39:28.814Z,0.00
2018-05-15T00:40:35.183Z,0.00
2018-05-15T00:41:41.557Z,0.00
2018-05-15T00:42:47.951Z,0.00
2018-05-15T00:43:55.307Z,0.00
2018-05-15T00:45:00.697Z,0.00
2018-05-15T00:46:07.064Z,0.00
2018-05-15T00:47:13.450Z,0.00
2018-05-15T00:48:19.853Z,0.00
2018-05-15T00:49:25.713Z,0.00
2018-05-15T00:50:32.076Z,0.00
2018-05-15T00:51:38.949Z,0.00
2018-05-15T00:52:45.347Z,0.00
2018-05-15T00:53:51.722Z,0.00
2018-05-15T00:54:58.086Z,0.00
2018-05-15T00:56:04.457Z,0.00
2018-05-15T00:57:10.828Z,0.00
2018-05-15T00:58:17.228Z,0.00
2018-05-15T00:59:23.576Z,0.00
2018-05-15T01:00:29.986Z,0.00
2018-05-15T01:01:36.383Z,0.00
2018-05-15T01:02:42.740Z,0.00
2018-05-15T01:03:48.577Z,0.00
2018-05-15T01:04:55.448Z,0.00
2018-05-15T01:06:01.811Z,0.00
2018-05-15T01:07:08.201Z,0.00
2018-05-15T01:08:14.618Z,0.00
2018-05-15T01:09:20.945Z,0.00
2018-05-15T01:10:27.295Z,0.00
2018-05-15T01:11:33.176Z,0.00
2018-05-15T01:12:40.058Z,0.00
2018-05-15T01:13:46.424Z,0.00
2018-05-15T01:14:53.726Z,0.00
2018-05-15T01:16:00.142Z,0.00
2018-05-15T01:17:05.528Z,0.00
2018-05-15T01:18:11.919Z,0.00
2018-05-15T01:19:18.252Z,0.00
2018-05-15T01:20:24.612Z,0.00
2018-05-15T01:21:30.990Z,0.00
2018-05-15T01:22:36.870Z,0.00
2018-05-15T01:23:43.756Z,0.00
2018-05-15T01:24:50.095Z,0.00
2018-05-15T01:25:56.458Z,0.00
2018-05-15T01:27:02.821Z,0.00
2018-05-15T01:28:09.212Z,0.00
2018-05-15T01:29:15.559Z,0.00
2018-05-15T01:30:21.906Z,0.00
2018-05-15T01:31:28.270Z,0.00
2018-05-15T01:32:34.654Z,0.00
2018-05-15T01:33:41.028Z,0.00
2018-05-15T01:34:47.375Z,0.00
2018-05-15T01:35:53.731Z,0.00
2018-05-15T01:37:00.088Z,0.00
2018-05-15T01:38:06.483Z,0.00
2018-05-15T01:39:12.821Z,0.00
2018-05-15T01:40:19.177Z,0.00
2018-05-15T01:41:25.540Z,0.00
2018-05-15T01:42:31.897Z,0.00
2018-05-15T01:43:38.283Z,0.00
2018-05-15T01:44:45.603Z,0.00
2018-05-15T01:45:50.467Z,0.00
2018-05-15T01:46:57.320Z,0.00
2018-05-15T01:48:03.716Z,0.00
2018-05-15T01:49:10.047Z,0.00
2018-05-15T01:50:16.427Z,0.00
2018-05-15T01:51:22.764Z,0.00
2018-05-15T01:52:29.114Z,0.00
2018-05-15T01:53:35.513Z,0.00
2018-05-15T01:54:41.825Z,0.00
2018-05-15T01:55:48.184Z,0.00
2018-05-15T01:56:54.545Z,0.00
2018-05-15T01:58:00.909Z,0.00
2018-05-15T01:59:07.245Z,0.00
2018-05-15T02:00:13.600Z,0.00
2018-05-15T02:01:19.970Z,0.00
2018-05-15T02:02:26.622Z,0.00
2018-05-15T02:03:32.698Z,0.00
2018-05-15T02:04:39.027Z,0.00
2018-05-15T02:05:45.394Z,0.00
2018-05-15T02:06:51.831Z,0.00
2018-05-15T02:07:58.123Z,0.00
2018-05-15T02:09:04.468Z,0.00
2018-05-15T02:10:10.807Z,0.00
2018-05-15T02:11:17.192Z,0.00
2018-05-15T02:12:23.534Z,0.00
2018-05-15T02:13:29.425Z,0.00
2018-05-15T02:14:36.248Z,0.00
2018-05-15T02:15:42.600Z,0.00
2018-05-15T02:16:48.958Z,0.00
2018-05-15T02:17:55.352Z,0.00
2018-05-15T02:19:01.675Z,0.00
2018-05-15T02:20:08.035Z,0.00
2018-05-15T02:21:14.396Z,0.00
2018-05-15T02:22:20.743Z,0.00
2018-05-15T02:23:27.128Z,0.00
2018-05-15T02:24:33.460Z,0.00
2018-05-15T02:25:39.813Z,0.00
2018-05-15T02:26:45.682Z,0.00
2018-05-15T02:27:52.031Z,0.00
2018-05-15T02:28:58.898Z,0.00
2018-05-15T02:30:05.238Z,0.00
2018-05-15T02:31:11.591Z,0.00
2018-05-15T02:32:17.952Z,0.00
2018-05-15T02:33:23.822Z,0.00
2018-05-15T02:34:30.664Z,0.00
2018-05-15T02:35:37.025Z,0.00
2018-05-15T02:36:43.363Z,0.00
2018-05-15T02:37:49.718Z,0.00
2018-05-15T02:38:56.085Z,0.00
2018-05-15T02:40:02.408Z,0.00
2018-05-15T02:41:09.757Z,0.00
2018-05-15T02:42:16.112Z,0.00
2018-05-15T02:43:21.505Z,0.00
2018-05-15T02:44:27.332Z,0.00
2018-05-15T02:45:33.684Z,0.00
2018-05-15T02:46:40.536Z,0.00
2018-05-15T02:47:46.872Z,0.00
2018-05-15T02:48:53.245Z,0.00
2018-05-15T02:49:59.571Z,0.00
2018-05-15T02:51:05.935Z,0.00
2018-05-15T02:52:12.380Z,0.00
2018-05-15T02:53:18.649Z,0.00
2018-05-15T02:54:24.978Z,0.00
2018-05-15T02:55:30.840Z,0.00
2018-05-15T02:56:37.677Z,0.00
2018-05-15T02:57:43.543Z,0.00
2018-05-15T02:58:50.413Z,0.00
2018-05-15T02:59:56.728Z,0.00
2018-05-15T03:01:03.074Z,0.00
2018-05-15T03:02:09.424Z,0.00
2018-05-15T03:03:15.795Z,0.00
2018-05-15T03:04:22.129Z,0.00
2018-05-15T03:05:28.464Z,0.00
2018-05-15T03:06:34.851Z,0.00
2018-05-15T03:07:41.160Z,0.00
2018-05-15T03:08:47.518Z,0.00
2018-05-15T03:09:53.854Z,0.00
2018-05-15T03:11:00.216Z,0.00
2018-05-15T03:12:06.534Z,0.00
2018-05-15T03:13:12.904Z,0.00
2018-05-15T03:14:19.221Z,0.00
2018-05-15T03:15:25.560Z,0.00
2018-05-15T03:16:31.890Z,0.00
2018-05-15T03:17:38.233Z,0.00
2018-05-15T03:18:44.601Z,0.00
2018-05-15T03:19:51.913Z,0.00
2018-05-15T03:20:57.270Z,0.00
2018-05-15T03:22:03.586Z,0.00
2018-05-15T03:23:09.971Z,0.00
2018-05-15T03:24:16.267Z,0.00
2018-05-15T03:25:22.624Z,0.00
2018-05-15T03:26:28.952Z,0.00
2018-05-15T03:27:35.339Z,0.00
2018-05-15T03:28:41.163Z,0.00
2018-05-15T03:29:47.463Z,0.00
2018-05-15T03:30:54.384Z,0.00
2018-05-15T03:32:00.140Z,0.00
2018-05-15T03:33:06.978Z,0.00
2018-05-15T03:34:12.842Z,5.63
2018-05-15T03:35:19.646Z,5.63
2018-05-15T03:36:25.984Z,5.63
2018-05-15T03:37:32.382Z,5.63
2018-05-15T03:38:38.682Z,5.63
2018-05-15T03:39:44.975Z,5.63
2018-05-15T03:40:51.324Z,5.63
2018-05-15T03:41:57.658Z,11.25
2018-05-15T03:43:03.982Z,11.25
2018-05-15T03:44:10.407Z,11.25
2018-05-15T03:45:16.660Z,11.25
2018-05-15T03:46:22.987Z,11.25
2018-05-15T03:47:29.333Z,11.25
2018-05-15T03:48:35.686Z,16.88
2018-05-15T03:49:41.514Z,16.88
2018-05-15T03:50:48.383Z,16.88
2018-05-15T03:51:54.174Z,16.88
2018-05-15T03:53:01.012Z,16.88
2018-05-15T03:54:07.375Z,16.88
2018-05-15T03:55:13.697Z,22.50
2018-05-15T03:56:20.016Z,22.50
2018-05-15T03:57:26.383Z,22.50
2018-05-15T03:58:32.715Z,22.50
2018-05-15T03:59:39.035Z,28.13
2018-05-15T04:00:44.860Z,28.13
2018-05-15T04:01:51.697Z,28.13
2018-05-15T04:02:58.020Z,28.13
2018-05-15T04:04:04.405Z,28.13
2018-05-15T04:05:10.701Z,33.75
2018-05-15T04:06:17.038Z,33.75
2018-05-15T04:07:23.366Z,33.75
2018-05-15T04:08:29.729Z,33.75
2018-05-15T04:09:36.046Z,39.38
2018-05-15T04:10:42.380Z,39.38
2018-05-15T04:11:48.693Z,45.00
2018-05-15T04:12:55.032Z,45.00
2018-05-15T04:14:01.382Z,50.63
2018-05-15T04:15:07.689Z,50.63
2018-05-15T04:16:13.533Z,56.25
2018-05-15T04:17:19.870Z,56.25
2018-05-15T04:18:26.705Z,56.25
2018-05-15T04:19:33.064Z,56.25
2018-05-15T04:20:40.400Z,61.88
2018-05-15T04:21:45.714Z,61.88
2018-05-15T04:22:52.037Z,67.50
2018-05-15T04:23:58.401Z,67.50
2018-05-15T04:25:04.237Z,73.13
2018-05-15T04:26:10.594Z,73.13
2018-05-15T04:27:16.910Z,73.13
2018-05-15T04:28:23.763Z,78.75
2018-05-15T04:29:30.134Z,78.75
2018-05-15T04:30:36.439Z,73.13
2018-05-15T04:31:42.786Z,73.13
2018-05-15T04:32:49.139Z,73.13
2018-05-15T04:33:55.499Z,78.75
2018-05-15T04:35:02.852Z,84.38
2018-05-15T04:36:08.177Z,78.75
2018-05-15T04:37:14.532Z,78.75
2018-05-15T04:38:20.890Z,73.13
2018-05-15T04:39:27.243Z,73.13
2018-05-15T04:40:33.581Z,78.75
2018-05-15T04:41:39.924Z,84.38
2018-05-15T04:42:46.254Z,90.00
2018-05-15T04:43:52.318Z,90.00
2018-05-15T04:44:58.951Z,95.63
2018-05-15T04:46:05.315Z,95.63
2018-05-15T04:47:11.636Z,95.63
2018-05-15T04:48:17.993Z,101.25
2018-05-15T04:49:24.491Z,101.25
2018-05-15T04:50:30.706Z,101.25
2018-05-15T04:51:36.543Z,106.88
2018-05-15T04:52:43.387Z,106.88
2018-05-15T04:53:49.760Z,112.50
2018-05-15T04:54:56.067Z,118.13
2018-05-15T04:56:02.415Z,123.75
2018-05-15T04:57:08.276Z,123.75
2018-05-15T04:58:15.112Z,118.13
2018-05-15T04:59:21.494Z,106.88
2018-05-15T05:00:27.807Z,101.25
2018-05-15T05:01:33.669Z,95.63
2018-05-15T05:02:40.511Z,90.00
2018-05-15T05:03:46.878Z,90.00
2018-05-15T05:04:54.194Z,90.00
2018-05-15T05:05:59.547Z,84.38
2018-05-15T05:07:05.904Z,95.63
2018-05-15T05:08:12.258Z,112.50
2018-05-15T05:09:18.612Z,129.38
2018-05-15T05:10:24.934Z,157.50
2018-05-15T05:11:30.788Z,174.38
2018-05-15T05:12:37.640Z,185.63
2018-05-15T05:13:43.503Z,191.25
2018-05-15T05:14:50.400Z,191.25
2018-05-15T05:15:56.727Z,191.25
2018-05-15T05:17:03.105Z,180.00
2018-05-15T05:18:09.470Z,168.75
2018-05-15T05:19:15.864Z,151.88
2018-05-15T05:20:22.210Z,140.63
2018-05-15T05:21:28.573Z,129.38
2018-05-15T05:22:34.950Z,112.50
2018-05-15T05:23:41.385Z,106.88
2018-05-15T05:24:47.723Z,106.88
2018-05-15T05:25:54.065Z,106.88
2018-05-15T05:27:00.439Z,112.50
2018-05-15T05:28:06.387Z,118.13
2018-05-15T05:29:13.170Z,123.75
2018-05-15T05:30:19.553Z,135.00
2018-05-15T05:31:25.882Z,151.88
2018-05-15T05:32:31.766Z,185.63
2018-05-15T05:33:38.622Z,219.38
2018-05-15T05:34:45.034Z,264.38
2018-05-15T05:35:51.370Z,270.00
2018-05-15T05:36:57.755Z,247.50
2018-05-15T05:38:04.135Z,225.00
2018-05-15T05:39:10.553Z,236.25
2018-05-15T05:40:16.920Z,258.75
2018-05-15T05:41:23.291Z,264.38
2018-05-15T05:42:29.700Z,286.88
2018-05-15T05:43:36.094Z,315.00
2018-05-15T05:44:42.511Z,315.00
2018-05-15T05:45:48.935Z,309.38
2018-05-15T05:46:55.313Z,326.25
2018-05-15T05:48:01.718Z,348.75
2018-05-15T05:49:08.167Z,371.25
2018-05-15T05:50:14.554Z,382.50
2018-05-15T05:51:20.989Z,388.13
2018-05-15T05:52:26.908Z,371.25
2018-05-15T05:53:33.836Z,360.00
2018-05-15T05:54:40.284Z,337.50
2018-05-15T05:55:46.700Z,326.25
2018-05-15T05:56:53.127Z,320.63
2018-05-15T05:57:59.592Z,309.38
2018-05-15T05:59:06.012Z,303.75
2018-05-15T06:00:13.414Z,298.13
2018-05-15T06:01:18.368Z,303.75
2018-05-15T06:02:25.301Z,286.88
2018-05-15T06:03:31.730Z,275.63
2018-05-15T06:04:38.181Z,281.25
2018-05-15T06:05:44.573Z,281.25
2018-05-15T06:06:51.008Z,270.00
2018-05-15T06:07:57.436Z,264.38
2018-05-15T06:09:03.384Z,247.50
2018-05-15T06:10:10.379Z,230.63
2018-05-15T06:11:16.720Z,202.50
2018-05-15T06:12:23.123Z,191.25
2018-05-15T06:13:29.551Z,191.25
2018-05-15T06:14:35.991Z,196.88
2018-05-15T06:15:41.879Z,219.38
2018-05-15T06:16:48.790Z,241.88
2018-05-15T06:17:55.198Z,253.13
2018-05-15T06:19:01.640Z,264.38
2018-05-15T06:20:08.019Z,281.25
2018-05-15T06:21:14.446Z,298.13
2018-05-15T06:22:20.846Z,309.38
2018-05-15T06:23:27.267Z,326.25
2018-05-15T06:24:33.717Z,331.88
2018-05-15T06:25:40.102Z,343.13
2018-05-15T06:26:46.035Z,354.38
2018-05-15T06:27:52.450Z,371.25
2018-05-15T06:28:59.387Z,388.13
2018-05-15T06:30:05.833Z,405.00
2018-05-15T06:31:12.236Z,410.63
2018-05-15T06:32:18.728Z,416.25
2018-05-15T06:33:25.101Z,416.25
2018-05-15T06:34:31.565Z,421.88
2018-05-15T06:35:37.489Z,416.25
2018-05-15T06:36:44.443Z,410.63
2018-05-15T06:37:50.889Z,405.00
2018-05-15T06:38:57.343Z,405.00
2018-05-15T06:40:03.816Z,405.00
2018-05-15T06:41:10.258Z,405.00
2018-05-15T06:42:16.210Z,399.38
2018-05-15T06:43:23.173Z,388.13
2018-05-15T06:44:29.157Z,388.13
2018-05-15T06:45:36.096Z,388.13
2018-05-15T06:46:42.555Z,393.75
2018-05-15T06:47:49.516Z,393.75
2018-05-15T06:48:55.479Z,388.13
2018-05-15T06:50:01.978Z,382.50
2018-05-15T06:51:08.417Z,388.13
2018-05-15T06:52:14.875Z,393.75
2018-05-15T06:53:20.839Z,399.38
2018-05-15T06:54:27.827Z,405.00
2018-05-15T06:55:34.261Z,410.63
2018-05-15T06:56:40.729Z,416.25
2018-05-15T06:57:47.201Z,433.13
2018-05-15T06:58:53.692Z,444.38
2018-05-15T07:00:01.176Z,455.63
2018-05-15T07:01:06.645Z,461.25
2018-05-15T07:02:12.619Z,466.88
2018-05-15T07:03:19.591Z,472.50
2018-05-15T07:04:26.121Z,466.88
2018-05-15T07:05:32.580Z,455.63
2018-05-15T07:06:39.073Z,450.00
2018-05-15T07:07:45.639Z,433.13
2018-05-15T07:08:52.088Z,421.88
2018-05-15T07:09:58.106Z,410.63
2018-05-15T07:11:05.086Z,393.75
2018-05-15T07:12:11.577Z,371.25
2018-05-15T07:13:17.590Z,360.00
2018-05-15T07:14:24.595Z,343.13
2018-05-15T07:15:31.078Z,343.13
2018-05-15T07:16:37.573Z,348.75
2018-05-15T07:17:44.071Z,348.75
2018-05-15T07:18:50.564Z,360.00
2018-05-15T07:19:57.091Z,360.00
2018-05-15T07:21:03.065Z,365.63
2018-05-15T07:22:10.049Z,365.63
2018-05-15T07:23:16.051Z,371.25
2018-05-15T07:24:23.561Z,365.63
2018-05-15T07:25:29.540Z,354.38
2018-05-15T07:26:35.529Z,348.75
2018-05-15T07:27:42.030Z,337.50
2018-05-15T07:28:49.027Z,331.88
2018-05-15T07:29:55.037Z,326.25
2018-05-15T07:31:01.531Z,315.00
2018-05-15T07:32:08.508Z,303.75
2018-05-15T07:33:14.637Z,292.50
2018-05-15T07:34:21.034Z,281.25
2018-05-15T07:35:28.008Z,264.38
2018-05-15T07:36:34.507Z,258.75
2018-05-15T07:37:41.002Z,270.00
2018-05-15T07:38:46.992Z,275.63
2018-05-15T07:39:54.022Z,281.25
2018-05-15T07:40:59.994Z,281.25
2018-05-15T07:42:06.975Z,281.25
2018-05-15T07:43:13.482Z,286.88
2018-05-15T07:44:19.974Z,281.25
2018-05-15T07:45:26.011Z,275.63
2018-05-15T07:46:32.474Z,258.75
2018-05-15T07:47:39.468Z,258.75
2018-05-15T07:48:46.950Z,247.50
2018-05-15T07:49:51.984Z,247.50
2018-05-15T07:50:58.956Z,247.50
2018-05-15T07:52:05.471Z,247.50
2018-05-15T07:53:11.949Z,258.75
2018-05-15T07:54:18.454Z,270.00
2018-05-15T07:55:24.976Z,275.63
2018-05-15T07:56:31.443Z,281.25
2018-05-15T07:57:37.942Z,292.50
2018-05-15T07:58:44.431Z,303.75
2018-05-15T07:59:50.946Z,326.25
2018-05-15T08:00:57.439Z,331.88
2018-05-15T08:02:03.958Z,348.75
2018-05-15T08:03:10.439Z,360.00
2018-05-15T08:04:17.029Z,348.75
2018-05-15T08:05:23.480Z,343.13
2018-05-15T08:06:29.951Z,337.50
2018-05-15T08:07:36.479Z,326.25
2018-05-15T08:08:42.495Z,320.63
2018-05-15T08:09:49.524Z,309.38
2018-05-15T08:10:56.022Z,298.13
2018-05-15T08:12:02.541Z,286.88
2018-05-15T08:13:09.063Z,281.25
2018-05-15T08:14:15.575Z,270.00
2018-05-15T08:15:21.634Z,275.63
2018-05-15T08:16:28.620Z,286.88
2018-05-15T08:17:34.653Z,309.38
2018-05-15T08:18:41.764Z,337.50
2018-05-15T08:19:47.715Z,365.63
2018-05-15T08:20:54.790Z,382.50
2018-05-15T08:22:01.250Z,410.63
2018-05-15T08:23:07.802Z,416.25
2018-05-15T08:24:14.380Z,438.75
2018-05-15T08:25:20.898Z,416.25
2018-05-15T08:26:26.937Z,388.13
2018-05-15T08:27:33.981Z,376.88
2018-05-15T08:28:40.041Z,382.50
2018-05-15T08:29:47.113Z,376.88
2018-05-15T08:30:53.734Z,337.50
2018-05-15T08:32:01.180Z,348.75
2018-05-15T08:33:06.770Z,337.50
2018-05-15T08:34:13.309Z,326.25
2018-05-15T08:35:19.893Z,315.00
2018-05-15T08:36:25.920Z,303.75
2018-05-15T08:37:33.088Z,286.88
2018-05-15T08:38:39.523Z,270.00
2018-05-15T08:39:45.607Z,264.38
2018-05-15T08:40:52.151Z,264.38
2018-05-15T08:41:58.691Z,270.00
2018-05-15T08:43:05.737Z,275.63
2018-05-15T08:44:12.382Z,275.63
2018-05-15T08:45:18.427Z,270.00
2018-05-15T08:46:24.903Z,264.38
2018-05-15T08:47:31.938Z,264.38
2018-05-15T08:48:38.497Z,258.75
2018-05-15T08:49:45.065Z,270.00
2018-05-15T08:50:51.108Z,275.63
2018-05-15T08:51:58.142Z,275.63
2018-05-15T08:53:04.701Z,270.00
2018-05-15T08:54:11.246Z,270.00
2018-05-15T08:55:17.822Z,275.63
2018-05-15T08:56:24.378Z,281.25
2018-05-15T08:57:30.916Z,275.63
2018-05-15T08:58:36.971Z,258.75
2018-05-15T08:59:44.051Z,281.25
2018-05-15T09:00:50.597Z,281.25
2018-05-15T09:01:57.169Z,270.00
2018-05-15T09:03:03.723Z,275.63
2018-05-15T09:04:09.796Z,281.25
2018-05-15T09:05:16.867Z,292.50
2018-05-15T09:06:23.405Z,309.38
2018-05-15T09:07:29.481Z,343.13
2018-05-15T09:08:36.066Z,326.25
2018-05-15T09:09:42.662Z,343.13
2018-05-15T09:10:49.210Z,365.63
2018-05-15T09:11:55.804Z,382.50
2018-05-15T09:13:02.878Z,371.25
2018-05-15T09:14:08.989Z,354.38
2018-05-15T09:15:16.101Z,382.50
2018-05-15T09:16:22.686Z,393.75
2018-05-15T09:17:29.289Z,399.38
2018-05-15T09:18:35.887Z,399.38
2018-05-15T09:19:42.526Z,399.38
2018-05-15T09:20:48.656Z,399.38
2018-05-15T09:21:55.238Z,399.38
2018-05-15T09:23:02.360Z,399.38
2018-05-15T09:24:08.509Z,393.75
2018-05-15T09:25:16.639Z,382.50
2018-05-15T09:26:22.266Z,371.25
2018-05-15T09:27:28.394Z,331.88
2018-05-15T09:28:35.532Z,405.00
2018-05-15T09:29:41.663Z,433.13
2018-05-15T09:30:48.324Z,405.00
2018-05-15T09:31:55.453Z,444.38
2018-05-15T09:33:02.091Z,438.75
2018-05-15T09:34:08.746Z,472.50
2018-05-15T09:35:14.914Z,472.50
2018-05-15T09:36:21.560Z,523.13
2018-05-15T09:37:28.716Z,545.63
2018-05-15T09:38:34.890Z,534.38
2018-05-15T09:39:42.057Z,511.88
2018-05-15T09:40:48.249Z,506.25
2018-05-15T09:41:55.402Z,483.75
2018-05-15T09:43:02.066Z,461.25
2018-05-15T09:44:08.243Z,444.38
2018-05-15T09:45:14.937Z,450.00
2018-05-15T09:46:21.589Z,450.00
2018-05-15T09:47:28.755Z,433.13
2018-05-15T09:48:35.437Z,444.38
2018-05-15T09:49:42.618Z,410.63
2018-05-15T09:50:48.318Z,399.38
2018-05-15T09:51:55.467Z,371.25
2018-05-15T09:53:02.130Z,399.38
2018-05-15T09:54:08.802Z,421.88
2018-05-15T09:55:14.991Z,331.88
2018-05-15T09:56:22.130Z,382.50
2018-05-15T09:57:28.401Z,393.75
2018-05-15T09:58:34.971Z,365.63
2018-05-15T09:59:42.141Z,371.25
2018-05-15T10:00:48.830Z,365.63
2018-05-15T10:01:55.467Z,382.50
2018-05-15T10:03:02.130Z,354.38
2018-05-15T10:04:08.786Z,388.13
2018-05-15T10:05:15.469Z,371.25
2018-05-15T10:06:22.116Z,360.00
2018-05-15T10:07:28.280Z,360.00
2018-05-15T10:08:35.445Z,365.63
2018-05-15T10:09:41.600Z,376.88
2018-05-15T10:10:48.780Z,388.13
2018-05-15T10:11:55.425Z,410.63
2018-05-15T10:13:02.100Z,376.88
2018-05-15T10:14:08.356Z,399.38
2018-05-15T10:15:15.426Z,388.13
2018-05-15T10:16:22.123Z,360.00
2018-05-15T10:17:28.387Z,371.25
2018-05-15T10:18:35.446Z,410.63
2018-05-15T10:19:41.622Z,427.50
2018-05-15T10:20:48.825Z,438.75
2018-05-15T10:21:54.975Z,438.75
2018-05-15T10:23:02.148Z,450.00
2018-05-15T10:24:08.830Z,461.25
2018-05-15T10:25:15.540Z,466.88
2018-05-15T10:26:23.263Z,483.75
2018-05-15T10:27:28.411Z,517.50
2018-05-15T10:28:35.586Z,556.88
2018-05-15T10:29:42.385Z,579.38
2018-05-15T10:30:49.015Z,590.63
2018-05-15T10:31:55.206Z,523.13
2018-05-15T10:33:02.417Z,511.88
2018-05-15T10:34:08.639Z,556.88
2018-05-15T10:35:15.874Z,562.50
2018-05-15T10:36:22.091Z,613.13
2018-05-15T10:37:29.309Z,652.50
2018-05-15T10:38:36.061Z,675.00
2018-05-15T10:39:42.400Z,675.00
2018-05-15T10:40:49.099Z,697.50
2018-05-15T10:41:55.841Z,742.50
2018-05-15T10:43:02.626Z,742.50
2018-05-15T10:44:10.212Z,641.25
2018-05-15T10:45:16.222Z,573.75
2018-05-15T10:46:23.491Z,579.38
2018-05-15T10:47:30.263Z,590.63
2018-05-15T10:48:37.053Z,635.63
2018-05-15T10:49:43.360Z,607.50
2018-05-15T10:50:50.227Z,528.75
2018-05-15T10:51:57.434Z,433.13
2018-05-15T10:53:04.225Z,388.13
2018-05-15T10:54:10.515Z,393.75
2018-05-15T10:55:17.812Z,410.63
2018-05-15T10:56:24.043Z,410.63
2018-05-15T10:57:30.796Z,433.13
2018-05-15T10:58:37.547Z,461.25
2018-05-15T10:59:44.384Z,489.38
2018-05-15T11:00:51.570Z,506.25
2018-05-15T11:01:57.781Z,523.13
2018-05-15T11:03:05.021Z,556.88
2018-05-15T11:04:11.756Z,630.00
2018-05-15T11:05:19.521Z,663.75
2018-05-15T11:06:26.247Z,697.50
2018-05-15T11:07:32.005Z,748.13
2018-05-15T11:08:38.777Z,871.88
2018-05-15T11:09:45.088Z,916.88
2018-05-15T11:10:52.507Z,961.88
2018-05-15T11:11:59.477Z,967.50
2018-05-15T11:13:06.515Z,1513.13
2018-05-15T11:14:13.107Z,2306.25
2018-05-15T11:15:20.424Z,2520.00
2018-05-15T11:16:27.359Z,2480.63
2018-05-15T11:17:35.020Z,2261.25
2018-05-15T11:18:42.294Z,2036.25
2018-05-15T11:19:48.896Z,1001.25
2018-05-15T11:20:56.096Z,2311.88
2018-05-15T11:22:03.785Z,2643.75
2018-05-15T11:23:11.035Z,2761.88
2018-05-15T11:24:17.836Z,2587.50
2018-05-15T11:25:25.674Z,731.25
2018-05-15T11:26:32.924Z,624.38
2018-05-15T11:27:40.137Z,624.38
2018-05-15T11:28:47.285Z,798.75
2018-05-15T11:29:53.927Z,1035.00
2018-05-15T11:31:01.081Z,770.63
2018-05-15T11:32:08.160Z,900.00
2018-05-15T11:33:15.741Z,843.75
2018-05-15T11:34:22.338Z,1158.75
2018-05-15T11:35:29.525Z,703.13
2018-05-15T11:36:37.103Z,742.50
2018-05-15T11:37:44.209Z,1209.38
2018-05-15T11:38:51.318Z,781.88
2018-05-15T11:39:58.396Z,720.00
2018-05-15T11:41:04.999Z,680.63
2018-05-15T11:42:12.493Z,601.88
2018-05-15T11:43:19.025Z,613.13
2018-05-15T11:44:26.481Z,2081.25
2018-05-15T11:45:33.034Z,669.38
2018-05-15T11:46:40.561Z,658.13
2018-05-15T11:47:47.837Z,759.38
2018-05-15T11:48:54.488Z,1321.88
2018-05-15T11:50:01.609Z,2036.25
2018-05-15T11:51:09.582Z,1963.13
2018-05-15T11:52:16.782Z,1890.00
2018-05-15T11:53:23.166Z,1816.88
2018-05-15T11:54:30.461Z,1788.75
2018-05-15T11:55:42.712Z,1890.00
2018-05-15T11:56:44.985Z,1755.00
2018-05-15T11:57:52.585Z,1608.75
2018-05-15T11:59:00.017Z,1597.50
2018-05-15T12:00:07.495Z,1395.00
2018-05-15T12:01:14.853Z,888.75
2018-05-15T12:02:22.216Z,995.63
2018-05-15T12:03:29.472Z,1327.50
2018-05-15T12:04:36.761Z,1040.63
2018-05-15T12:05:43.570Z,961.88
2018-05-15T12:06:51.289Z,1012.50
2018-05-15T12:07:58.585Z,1490.63
2018-05-15T12:09:05.820Z,1513.13
2018-05-15T12:10:12.999Z,1524.38
2018-05-15T12:11:20.299Z,1513.13
2018-05-15T12:12:27.564Z,1400.63
2018-05-15T12:13:34.872Z,1423.13
2018-05-15T12:14:42.171Z,1468.13
2018-05-15T12:15:49.489Z,1389.38
2018-05-15T12:16:56.765Z,950.63
2018-05-15T12:18:03.518Z,1428.75
2018-05-15T12:19:11.273Z,1350.00
2018-05-15T12:20:18.552Z,1310.63
2018-05-15T12:21:25.852Z,1215.00
2018-05-15T12:22:33.105Z,1035.00
2018-05-15T12:23:40.376Z,1175.63
2018-05-15T12:24:47.619Z,1299.38
2018-05-15T12:25:54.888Z,1350.00
2018-05-15T12:27:01.834Z,1333.13
2018-05-15T12:28:09.030Z,1400.63
2018-05-15T12:29:16.697Z,1310.63
2018-05-15T12:30:23.511Z,1389.38
2018-05-15T12:31:31.422Z,1366.88
2018-05-15T12:32:38.669Z,1293.75
2018-05-15T12:33:46.036Z,1293.75
2018-05-15T12:34:53.375Z,1355.63
2018-05-15T12:36:00.773Z,1288.13
2018-05-15T12:37:08.117Z,1276.88
2018-05-15T12:38:15.528Z,1198.13
2018-05-15T12:39:23.040Z,1237.50
2018-05-15T12:40:30.617Z,1276.88
2018-05-15T12:41:37.779Z,1305.00
2018-05-15T12:42:45.109Z,1237.50
2018-05-15T12:43:52.532Z,1282.50
2018-05-15T12:44:59.941Z,1237.50
2018-05-15T12:46:07.607Z,1344.38
2018-05-15T12:47:14.854Z,1473.75
2018-05-15T12:48:21.866Z,1344.38
2018-05-15T12:49:29.818Z,1535.63
2018-05-15T12:50:37.358Z,1614.38
2018-05-15T12:51:44.941Z,1569.38
2018-05-15T12:52:52.455Z,888.75
2018-05-15T12:54:00.019Z,877.50
2018-05-15T12:55:07.488Z,883.13
2018-05-15T12:56:14.825Z,916.88
2018-05-15T12:57:22.210Z,1366.88
2018-05-15T12:58:29.429Z,1417.50
2018-05-15T12:59:36.902Z,1271.25
2018-05-15T13:00:44.345Z,849.38
2018-05-15T13:01:51.684Z,826.88
2018-05-15T13:02:58.881Z,849.38
2018-05-15T13:04:06.109Z,894.38
2018-05-15T13:05:13.329Z,1226.25
2018-05-15T13:06:20.574Z,1226.25
2018-05-15T13:07:27.920Z,1288.13
2018-05-15T13:08:35.104Z,1321.88
2018-05-15T13:09:42.399Z,1344.38
2018-05-15T13:10:49.718Z,1395.00
2018-05-15T13:11:57.056Z,1428.75
2018-05-15T13:13:04.469Z,1305.00
2018-05-15T13:14:11.835Z,1265.63
2018-05-15T13:15:19.226Z,1209.38
2018-05-15T13:16:27.034Z,1316.25
2018-05-15T13:17:34.045Z,1344.38
2018-05-15T13:18:41.181Z,1271.25
2018-05-15T13:19:48.885Z,1321.88
2018-05-15T13:20:56.403Z,1288.13
2018-05-15T13:22:03.808Z,1170.00
2018-05-15T13:23:11.271Z,1074.38
2018-05-15T13:24:18.769Z,1085.63
2018-05-15T13:25:26.157Z,1434.38
2018-05-15T13:26:33.621Z,1456.88
2018-05-15T13:27:41.088Z,1530.00
2018-05-15T13:28:48.529Z,1586.25
2018-05-15T13:29:56.125Z,1541.25
2018-05-15T13:31:03.523Z,1518.75
2018-05-15T13:32:11.024Z,1473.75
2018-05-15T13:33:18.561Z,1479.38
2018-05-15T13:34:26.054Z,1541.25
2018-05-15T13:35:33.591Z,1625.63
2018-05-15T13:36:41.162Z,1625.63
2018-05-15T13:37:48.700Z,1580.63
2018-05-15T13:38:55.747Z,1614.38
2018-05-15T13:40:03.807Z,1715.63
2018-05-15T13:41:10.932Z,1575.00
2018-05-15T13:42:18.978Z,1676.25
2018-05-15T13:43:26.590Z,1575.00
2018-05-15T13:44:34.158Z,1400.63
2018-05-15T13:45:41.255Z,1321.88
2018-05-15T13:46:49.350Z,945.00
2018-05-15T13:47:56.872Z,714.38
2018-05-15T13:49:03.855Z,1085.63
2018-05-15T13:50:11.778Z,1490.63
2018-05-15T13:51:19.242Z,1462.50
2018-05-15T13:52:26.684Z,1389.38
2018-05-15T13:53:34.169Z,1462.50
2018-05-15T13:54:41.621Z,1518.75
2018-05-15T13:55:49.158Z,1625.63
2018-05-15T13:56:56.564Z,1687.50
2018-05-15T13:58:04.063Z,1698.75
2018-05-15T13:59:12.244Z,1642.50
2018-05-15T14:00:19.115Z,1681.88
2018-05-15T14:01:26.655Z,1698.75
2018-05-15T14:02:34.217Z,1642.50
2018-05-15T14:03:41.804Z,1681.88